createdAt,value
2018-05-31T00:00:32.251Z,16.17
2018-05-31T00:01:29.850Z,16.2
2018-05-31T00:02:29.112Z,16.23
2018-05-31T00:03:29.064Z,16.34
2018-05-31T00:04:29.104Z,16.34
2018-05-31T00:05:31.741Z,16.42
2018-05-31T00:06:29.105Z,16.45
2018-05-31T00:07:29.074Z,16.55
2018-05-31T00:08:30.081Z,16.53
2018-05-31T00:09:29.192Z,16.6
2018-05-31T00:10:29.102Z,16.57
2018-05-31T00:11:29.227Z,16.54
2018-05-31T00:12:29.153Z,16.71
2018-05-31T00:13:29.167Z,16.86
2018-05-31T00:14:31.995Z,16.83
2018-05-31T00:15:29.149Z,16.8
2018-05-31T00:16:29.181Z,17.04
2018-05-31T00:17:29.179Z,17.01
2018-05-31T00:18:29.183Z,17.5
2018-05-31T00:19:29.198Z,17.79
2018-05-31T00:20:29.154Z,17.6
2018-05-31T00:21:29.119Z,17.54
2018-05-31T00:22:29.148Z,17.8
2018-05-31T00:23:31.540Z,17.61
2018-05-31T00:24:29.108Z,17.51
2018-05-31T00:25:29.216Z,18.28
2018-05-31T00:26:29.131Z,18.07
2018-05-31T00:27:29.252Z,17.87
2018-05-31T00:28:29.135Z,17.8
2018-05-31T00:29:29.143Z,17.79
2018-05-31T00:30:29.192Z,17.62
2018-05-31T00:31:29.157Z,17.6
2018-05-31T00:32:31.192Z,17.99
2018-05-31T00:33:29.283Z,18.22
2018-05-31T00:34:29.121Z,18.14
2018-05-31T00:35:29.259Z,17.92
2018-05-31T00:36:29.144Z,17.7
2018-05-31T00:37:29.198Z,17.62
2018-05-31T00:38:29.162Z,17.95
2018-05-31T00:39:29.276Z,17.68
2018-05-31T00:40:29.164Z,17.85
2018-05-31T00:41:30.459Z,17.87
2018-05-31T00:42:29.295Z,18.06
2018-05-31T00:43:29.194Z,18.04
2018-05-31T00:44:29.216Z,18.05
2018-05-31T00:45:29.178Z,18.25
2018-05-31T00:46:29.800Z,18.4
2018-05-31T00:47:29.316Z,18.56
2018-05-31T00:48:29.132Z,18.66
2018-05-31T00:49:29.245Z,18.93
2018-05-31T00:50:29.217Z,18.67
2018-05-31T00:51:29.211Z,18.71
2018-05-31T00:52:29.386Z,18.66
2018-05-31T00:53:29.270Z,18.54
2018-05-31T00:54:29.246Z,18.72
2018-05-31T00:55:29.270Z,18.55
2018-05-31T00:56:29.220Z,18.58
2018-05-31T00:57:29.226Z,18.61
2018-05-31T00:58:29.159Z,18.8
2018-05-31T00:59:29.143Z,18.92
2018-05-31T01:00:31.704Z,18.93
2018-05-31T01:01:29.211Z,18.91
2018-05-31T01:02:29.364Z,18.83
2018-05-31T01:03:29.226Z,18.62
2018-05-31T01:04:29.329Z,18.62
2018-05-31T01:05:29.153Z,18.46
2018-05-31T01:06:29.197Z,18.25
2018-05-31T01:07:29.400Z,18.25
2018-05-31T01:08:29.168Z,18.18
2018-05-31T01:09:31.361Z,18.21
2018-05-31T01:10:29.261Z,18.23
2018-05-31T01:11:29.226Z,18.1
2018-05-31T01:12:29.248Z,18.06
2018-05-31T01:13:29.349Z,18.13
2018-05-31T01:14:29.202Z,18.24
2018-05-31T01:15:29.223Z,18.14
2018-05-31T01:16:29.052Z,17.89
2018-05-31T01:17:29.224Z,18.25
2018-05-31T01:18:31.332Z,18.13
2018-05-31T01:19:29.253Z,18.2
2018-05-31T01:20:29.311Z,18.18
2018-05-31T01:21:29.388Z,18.09
2018-05-31T01:22:29.310Z,18.33
2018-05-31T01:23:29.325Z,18.02
2018-05-31T01:24:29.101Z,18.48
2018-05-31T01:25:29.066Z,18.56
2018-05-31T01:26:29.121Z,18.23
2018-05-31T01:27:30.778Z,18.04
2018-05-31T01:28:29.091Z,17.85
2018-05-31T01:29:29.030Z,17.86
2018-05-31T01:30:29.076Z,17.79
2018-05-31T01:31:29.096Z,17.75
2018-05-31T01:32:29.072Z,17.88
2018-05-31T01:33:29.081Z,18.01
2018-05-31T01:34:29.057Z,18.01
2018-05-31T01:35:29.069Z,17.96
2018-05-31T01:36:30.429Z,18
2018-05-31T01:37:29.066Z,17.81
2018-05-31T01:38:29.048Z,17.69
2018-05-31T01:39:29.066Z,17.52
2018-05-31T01:40:29.030Z,17.46
2018-05-31T01:41:29.134Z,17.46
2018-05-31T01:42:29.125Z,17.37
2018-05-31T01:43:29.067Z,17.38
2018-05-31T01:44:29.045Z,17.57
2018-05-31T01:45:30.111Z,17.66
2018-05-31T01:46:29.127Z,17.55
2018-05-31T01:47:29.073Z,17.6
2018-05-31T01:48:29.080Z,17.39
2018-05-31T01:49:29.092Z,17.34
2018-05-31T01:50:29.085Z,17.25
2018-05-31T01:51:29.100Z,17.26
2018-05-31T01:52:29.050Z,17.17
2018-05-31T01:53:29.172Z,17.3
2018-05-31T01:54:29.547Z,17.34
2018-05-31T01:55:31.587Z,17.38
2018-05-31T01:56:29.076Z,17.21
2018-05-31T01:57:29.102Z,17.22
2018-05-31T01:58:29.070Z,17.15
2018-05-31T01:59:29.096Z,17.23
2018-05-31T02:00:29.122Z,17.2
2018-05-31T02:01:29.061Z,17.46
2018-05-31T02:02:29.084Z,17.39
2018-05-31T02:03:29.165Z,17.31
2018-05-31T02:04:31.139Z,17.31
2018-05-31T02:05:29.085Z,17.64
2018-05-31T02:06:29.054Z,17.41
2018-05-31T02:07:29.074Z,17.45
2018-05-31T02:08:29.097Z,17.44
2018-05-31T02:09:29.098Z,17.38
2018-05-31T02:10:29.073Z,17.31
2018-05-31T02:11:29.105Z,17.63
2018-05-31T02:12:29.293Z,17.72
2018-05-31T02:13:31.407Z,17.53
2018-05-31T02:14:29.269Z,17.49
2018-05-31T02:15:29.084Z,17.6
2018-05-31T02:16:29.104Z,17.47
2018-05-31T02:17:29.143Z,17.48
2018-05-31T02:18:29.217Z,17.54
2018-05-31T02:19:29.081Z,17.43
2018-05-31T02:20:29.117Z,17.46
2018-05-31T02:21:29.160Z,17.55
2018-05-31T02:22:31.469Z,17.4
2018-05-31T02:23:29.181Z,17.41
2018-05-31T02:24:29.115Z,17.41
2018-05-31T02:25:29.108Z,17.35
2018-05-31T02:26:29.251Z,17.46
2018-05-31T02:27:29.106Z,17.37
2018-05-31T02:28:29.077Z,17.49
2018-05-31T02:29:29.141Z,17.4
2018-05-31T02:30:29.108Z,17.4
2018-05-31T02:31:31.439Z,17.17
2018-05-31T02:32:29.079Z,17.14
2018-05-31T02:33:29.135Z,17.35
2018-05-31T02:34:29.135Z,17.38
2018-05-31T02:35:29.088Z,17.47
2018-05-31T02:36:29.129Z,17.42
2018-05-31T02:37:29.096Z,17.46
2018-05-31T02:38:29.173Z,17.48
2018-05-31T02:39:29.096Z,17.41
2018-05-31T02:40:31.196Z,17.55
2018-05-31T02:41:29.102Z,17.32
2018-05-31T02:42:29.107Z,17.52
2018-05-31T02:43:29.128Z,17.48
2018-05-31T02:44:29.148Z,17.47
2018-05-31T02:45:29.174Z,17.3
2018-05-31T02:46:29.128Z,17.34
2018-05-31T02:47:29.144Z,17.21
2018-05-31T02:48:29.170Z,17.19
2018-05-31T02:49:30.960Z,17.31
2018-05-31T02:50:29.150Z,17.36
2018-05-31T02:51:29.232Z,17.47
2018-05-31T02:52:29.215Z,17.39
2018-05-31T02:53:29.193Z,17.19
2018-05-31T02:54:29.234Z,17.09
2018-05-31T02:55:29.186Z,17.22
2018-05-31T02:56:29.168Z,17.02
2018-05-31T02:57:29.238Z,17.25
2018-05-31T02:58:30.525Z,17.06
2018-05-31T02:59:29.255Z,17.16
2018-05-31T03:00:29.258Z,17.27
2018-05-31T03:01:29.276Z,17.33
2018-05-31T03:02:29.274Z,17.21
2018-05-31T03:03:29.314Z,17.03
2018-05-31T03:04:29.260Z,17.01
2018-05-31T03:05:29.243Z,17.18
2018-05-31T03:06:29.261Z,17.08
2018-05-31T03:07:30.669Z,17.36
2018-05-31T03:08:29.312Z,17.25
2018-05-31T03:09:29.623Z,17.04
2018-05-31T03:10:29.251Z,17.4
2018-05-31T03:11:29.318Z,17.23
2018-05-31T03:12:29.268Z,17.32
2018-05-31T03:13:29.279Z,17.4
2018-05-31T03:14:29.256Z,17.23
2018-05-31T03:15:29.372Z,17.13
2018-05-31T03:16:30.207Z,17.31
2018-05-31T03:17:29.259Z,17.18
2018-05-31T03:18:29.285Z,17.29
2018-05-31T03:19:29.293Z,17.2
2018-05-31T03:20:29.271Z,17.23
2018-05-31T03:21:29.269Z,17.31
2018-05-31T03:22:29.648Z,17.36
2018-05-31T03:23:29.325Z,17.39
2018-05-31T03:24:29.309Z,17.37
2018-05-31T03:25:30.140Z,17.34
2018-05-31T03:26:29.261Z,17.24
2018-05-31T03:27:29.354Z,17.16
2018-05-31T03:28:29.283Z,17.34
2018-05-31T03:29:29.264Z,17.22
2018-05-31T03:30:29.298Z,17.25
2018-05-31T03:31:29.310Z,17.18
2018-05-31T03:32:29.311Z,17.04
2018-05-31T03:33:29.291Z,17.25
2018-05-31T03:34:30.639Z,17.24
2018-05-31T03:35:29.327Z,17.25
2018-05-31T03:36:29.336Z,17.12
2018-05-31T03:37:29.277Z,17.12
2018-05-31T03:38:29.307Z,17.28
2018-05-31T03:39:29.311Z,17.34
2018-05-31T03:40:29.339Z,17.37
2018-05-31T03:41:29.296Z,17.34
2018-05-31T03:42:29.373Z,17.42
2018-05-31T03:43:31.167Z,17.33
2018-05-31T03:44:29.319Z,17.24
2018-05-31T03:45:29.350Z,17.09
2018-05-31T03:46:29.351Z,17.03
2018-05-31T03:47:29.680Z,17
2018-05-31T03:48:29.822Z,17.02
2018-05-31T03:49:29.259Z,17.13
2018-05-31T03:50:29.332Z,17
2018-05-31T03:51:29.291Z,16.9
2018-05-31T03:52:30.763Z,16.97
2018-05-31T03:53:29.865Z,17.01
2018-05-31T03:54:29.404Z,17.07
2018-05-31T03:55:29.528Z,16.95
2018-05-31T03:56:29.323Z,16.98
2018-05-31T03:57:29.323Z,17.09
2018-05-31T03:58:29.339Z,17.14
2018-05-31T03:59:29.359Z,16.89
2018-05-31T04:00:29.406Z,16.9
2018-05-31T04:01:31.400Z,17.11
2018-05-31T04:02:29.297Z,17.13
2018-05-31T04:03:29.327Z,17.09
2018-05-31T04:04:29.163Z,17.02
2018-05-31T04:05:29.172Z,16.95
2018-05-31T04:06:29.163Z,16.99
2018-05-31T04:07:29.197Z,16.97
2018-05-31T04:08:29.199Z,16.92
2018-05-31T04:09:29.176Z,16.83
2018-05-31T04:10:30.909Z,16.82
2018-05-31T04:11:29.211Z,16.74
2018-05-31T04:12:29.182Z,16.88
2018-05-31T04:13:29.194Z,16.85
2018-05-31T04:14:29.186Z,16.74
2018-05-31T04:15:29.186Z,16.81
2018-05-31T04:16:29.192Z,16.74
2018-05-31T04:17:29.191Z,16.74
2018-05-31T04:18:29.263Z,16.66
2018-05-31T04:19:30.965Z,16.72
2018-05-31T04:20:29.537Z,16.67
2018-05-31T04:21:29.599Z,16.65
2018-05-31T04:22:29.154Z,16.7
2018-05-31T04:23:29.172Z,16.59
2018-05-31T04:24:29.136Z,16.62
2018-05-31T04:25:29.281Z,16.65
2018-05-31T04:26:29.273Z,16.66
2018-05-31T04:27:29.211Z,16.67
2018-05-31T04:28:31.039Z,16.57
2018-05-31T04:29:29.245Z,16.53
2018-05-31T04:30:29.323Z,16.64
2018-05-31T04:31:29.182Z,16.59
2018-05-31T04:32:29.206Z,16.59
2018-05-31T04:33:29.197Z,16.62
2018-05-31T04:34:29.323Z,16.58
2018-05-31T04:35:29.209Z,16.63
2018-05-31T04:36:29.268Z,16.59
2018-05-31T04:37:30.944Z,16.55
2018-05-31T04:38:29.168Z,16.47
2018-05-31T04:39:29.178Z,16.48
2018-05-31T04:40:29.213Z,16.46
2018-05-31T04:41:29.195Z,16.42
2018-05-31T04:42:29.581Z,16.36
2018-05-31T04:43:29.222Z,16.32
2018-05-31T04:44:29.216Z,16.47
2018-05-31T04:45:29.156Z,16.42
2018-05-31T04:46:31.245Z,16.31
2018-05-31T04:47:29.217Z,16.43
2018-05-31T04:48:29.192Z,16.51
2018-05-31T04:49:29.236Z,16.45
2018-05-31T04:50:29.228Z,16.41
2018-05-31T04:51:29.169Z,16.35
2018-05-31T04:52:29.265Z,16.31
2018-05-31T04:53:29.336Z,16.32
2018-05-31T04:54:29.207Z,16.35
2018-05-31T04:55:31.310Z,16.36
2018-05-31T04:56:29.232Z,16.38
2018-05-31T04:57:29.210Z,16.28
2018-05-31T04:58:29.184Z,16.31
2018-05-31T04:59:29.233Z,16.29
2018-05-31T05:00:29.401Z,16.22
2018-05-31T05:01:29.199Z,16.22
2018-05-31T05:02:29.323Z,16.22
2018-05-31T05:03:29.235Z,16.22
2018-05-31T05:04:31.314Z,16.35
2018-05-31T05:05:29.230Z,16.34
2018-05-31T05:06:29.259Z,16.34
2018-05-31T05:07:29.194Z,16.42
2018-05-31T05:08:29.188Z,16.32
2018-05-31T05:09:29.189Z,16.45
2018-05-31T05:10:29.194Z,16.3
2018-05-31T05:11:29.191Z,16.4
2018-05-31T05:12:29.221Z,16.32
2018-05-31T05:13:31.128Z,16.4
2018-05-31T05:14:29.217Z,16.29
2018-05-31T05:15:29.202Z,16.29
2018-05-31T05:16:29.181Z,16.31
2018-05-31T05:17:29.239Z,16.4
2018-05-31T05:18:29.182Z,16.4
2018-05-31T05:19:29.210Z,16.46
2018-05-31T05:20:29.259Z,16.32
2018-05-31T05:21:29.238Z,16.27
2018-05-31T05:22:31.189Z,16.29
2018-05-31T05:23:29.287Z,16.39
2018-05-31T05:24:29.258Z,16.39
2018-05-31T05:25:29.277Z,16.44
2018-05-31T05:26:29.649Z,16.39
2018-05-31T05:27:29.227Z,16.4
2018-05-31T05:28:29.311Z,16.36
2018-05-31T05:29:29.218Z,16.37
2018-05-31T05:30:29.201Z,16.28
2018-05-31T05:31:31.459Z,16.36
2018-05-31T05:32:29.490Z,16.38
2018-05-31T05:33:29.241Z,16.24
2018-05-31T05:34:29.316Z,16.26
2018-05-31T05:35:29.214Z,16.29
2018-05-31T05:36:29.388Z,16.37
2018-05-31T05:37:29.254Z,16.43
2018-05-31T05:38:29.328Z,16.4
2018-05-31T05:39:29.297Z,16.48
2018-05-31T05:40:31.725Z,16.55
2018-05-31T05:41:29.324Z,16.61
2018-05-31T05:42:29.330Z,16.52
2018-05-31T05:43:29.559Z,16.52
2018-05-31T05:44:29.336Z,16.47
2018-05-31T05:45:29.381Z,16.67
2018-05-31T05:46:29.319Z,16.65
2018-05-31T05:47:29.337Z,16.5
2018-05-31T05:48:29.334Z,16.52
2018-05-31T05:49:31.684Z,16.39
2018-05-31T05:50:29.548Z,16.46
2018-05-31T05:51:29.364Z,16.51
2018-05-31T05:52:29.453Z,16.68
2018-05-31T05:53:29.369Z,16.35
2018-05-31T05:54:29.352Z,16.29
2018-05-31T05:55:29.347Z,16.39
2018-05-31T05:56:29.876Z,16.34
2018-05-31T05:57:29.381Z,16.33
2018-05-31T05:58:31.754Z,16.32
2018-05-31T05:59:29.374Z,16.47
2018-05-31T06:00:29.449Z,16.37
2018-05-31T06:01:29.452Z,16.39
2018-05-31T06:02:29.384Z,16.26
2018-05-31T06:03:29.385Z,16.24
2018-05-31T06:04:29.384Z,16.19
2018-05-31T06:05:29.550Z,16.32
2018-05-31T06:06:29.407Z,16.2
2018-05-31T06:07:29.423Z,16.21
2018-05-31T06:08:29.362Z,16.19
2018-05-31T06:09:29.404Z,16.36
2018-05-31T06:10:29.372Z,16.35
2018-05-31T06:11:29.398Z,16.38
2018-05-31T06:12:29.429Z,16.17
2018-05-31T06:13:30.259Z,16.22
2018-05-31T06:14:29.400Z,16.18
2018-05-31T06:15:31.264Z,16.32
2018-05-31T06:16:29.445Z,16.33
2018-05-31T06:17:29.490Z,16.15
2018-05-31T06:18:29.387Z,16.15
2018-05-31T06:19:29.398Z,16.1
2018-05-31T06:20:29.359Z,16.14
2018-05-31T06:21:29.393Z,16.08
2018-05-31T06:22:29.383Z,16.11
2018-05-31T06:23:29.381Z,16.14
2018-05-31T06:24:30.856Z,16.25
2018-05-31T06:25:29.368Z,16.22
2018-05-31T06:26:31.057Z,16.22
2018-05-31T06:27:29.386Z,16.26
2018-05-31T06:28:29.401Z,16.28
2018-05-31T06:29:29.533Z,16.4
2018-05-31T06:30:29.441Z,15.94
2018-05-31T06:31:29.400Z,16.02
2018-05-31T06:32:29.450Z,16.07
2018-05-31T06:33:31.643Z,16
2018-05-31T06:34:29.351Z,15.99
2018-05-31T06:35:29.349Z,15.9
2018-05-31T06:36:29.360Z,15.97
2018-05-31T06:37:29.782Z,15.97
2018-05-31T06:38:29.726Z,16.06
2018-05-31T06:39:29.344Z,16.14
2018-05-31T06:40:29.419Z,16.02
2018-05-31T06:41:29.393Z,15.94
2018-05-31T06:42:29.555Z,16.05
2018-05-31T06:43:29.391Z,15.73
2018-05-31T06:44:29.364Z,15.98
2018-05-31T06:45:29.206Z,15.99
2018-05-31T06:46:29.216Z,15.98
2018-05-31T06:47:29.420Z,16
2018-05-31T06:48:29.208Z,16.07
2018-05-31T06:49:29.204Z,15.95
2018-05-31T06:50:29.213Z,15.97
2018-05-31T06:51:29.511Z,16.01
2018-05-31T06:52:29.409Z,16.03
2018-05-31T06:53:29.212Z,16.1
2018-05-31T06:54:29.416Z,16.08
2018-05-31T06:55:29.206Z,16.18
2018-05-31T06:56:29.224Z,16.11
2018-05-31T06:57:29.246Z,16.16
2018-05-31T06:58:29.242Z,16.01
2018-05-31T06:59:29.257Z,16.17
2018-05-31T07:00:29.252Z,16.23
2018-05-31T07:01:29.233Z,16.29
2018-05-31T07:02:29.520Z,16.38
2018-05-31T07:03:29.554Z,16.43
2018-05-31T07:04:29.227Z,16.58
2018-05-31T07:05:29.232Z,16.52
2018-05-31T07:06:29.229Z,16.45
2018-05-31T07:07:29.243Z,16.36
2018-05-31T07:08:29.238Z,16.36
2018-05-31T07:09:29.244Z,16.38
2018-05-31T07:10:29.250Z,16.54
2018-05-31T07:11:29.252Z,16.51
2018-05-31T07:12:29.286Z,16.53
2018-05-31T07:13:29.526Z,16.53
2018-05-31T07:14:29.672Z,16.54
2018-05-31T07:15:29.538Z,16.6
2018-05-31T07:16:29.236Z,16.59
2018-05-31T07:17:29.283Z,16.56
2018-05-31T07:18:29.295Z,16.65
2018-05-31T07:19:29.234Z,16.83
2018-05-31T07:20:29.250Z,16.7
2018-05-31T07:21:29.240Z,16.78
2018-05-31T07:22:29.228Z,16.67
2018-05-31T07:23:29.244Z,16.72
2018-05-31T07:24:29.232Z,16.6
2018-05-31T07:25:29.261Z,16.5
2018-05-31T07:26:29.251Z,16.55
2018-05-31T07:27:29.233Z,16.74
2018-05-31T07:28:29.288Z,16.63
2018-05-31T07:29:29.239Z,16.62
2018-05-31T07:30:29.301Z,16.79
2018-05-31T07:31:29.263Z,16.72
2018-05-31T07:32:29.257Z,16.73
2018-05-31T07:33:29.287Z,16.79
2018-05-31T07:34:29.263Z,16.68
2018-05-31T07:35:29.279Z,16.6
2018-05-31T07:36:29.260Z,16.72
2018-05-31T07:37:29.378Z,16.72
2018-05-31T07:38:29.243Z,16.79
2018-05-31T07:39:29.255Z,16.79
2018-05-31T07:40:29.227Z,16.75
2018-05-31T07:41:29.226Z,16.71
2018-05-31T07:42:29.274Z,16.75
2018-05-31T07:43:29.485Z,16.7
2018-05-31T07:44:29.264Z,16.68
2018-05-31T07:45:29.267Z,16.67
2018-05-31T07:46:29.988Z,16.61
2018-05-31T07:47:29.254Z,16.6
2018-05-31T07:48:29.315Z,16.42
2018-05-31T07:49:29.311Z,16.51
2018-05-31T07:50:29.437Z,16.42
2018-05-31T07:51:29.324Z,16.53
2018-05-31T07:52:29.264Z,16.71
2018-05-31T07:53:29.252Z,16.64
2018-05-31T07:54:29.258Z,16.68
2018-05-31T07:55:29.471Z,16.85
2018-05-31T07:56:29.299Z,16.87
2018-05-31T07:57:29.289Z,16.85
2018-05-31T07:58:29.326Z,16.77
2018-05-31T07:59:29.262Z,16.72
2018-05-31T08:00:29.262Z,16.59
2018-05-31T08:01:29.333Z,16.53
2018-05-31T08:02:29.280Z,16.48
2018-05-31T08:03:29.330Z,16.67
2018-05-31T08:04:29.305Z,16.63
2018-05-31T08:05:29.264Z,16.85
2018-05-31T08:06:29.288Z,17.02
2018-05-31T08:07:29.297Z,16.98
2018-05-31T08:08:29.351Z,16.85
2018-05-31T08:09:29.286Z,16.83
2018-05-31T08:10:29.315Z,16.94
2018-05-31T08:11:29.288Z,16.91
2018-05-31T08:12:29.317Z,17.02
2018-05-31T08:13:29.283Z,16.68
2018-05-31T08:14:29.301Z,16.6
2018-05-31T08:15:29.255Z,16.66
2018-05-31T08:16:29.303Z,16.79
2018-05-31T08:17:29.319Z,16.81
2018-05-31T08:18:29.309Z,16.64
2018-05-31T08:19:29.295Z,16.66
2018-05-31T08:20:29.269Z,16.41
2018-05-31T08:21:29.281Z,16.66
2018-05-31T08:22:29.314Z,16.54
2018-05-31T08:23:29.286Z,16.47
2018-05-31T08:24:29.272Z,16.57
2018-05-31T08:25:29.341Z,16.63
2018-05-31T08:26:29.382Z,16.49
2018-05-31T08:27:29.278Z,16.94
2018-05-31T08:28:29.283Z,16.82
2018-05-31T08:29:29.275Z,16.92
2018-05-31T08:30:29.296Z,17.05
2018-05-31T08:31:29.791Z,17.11
2018-05-31T08:32:29.328Z,17.03
2018-05-31T08:33:29.356Z,16.85
2018-05-31T08:34:29.410Z,16.66
2018-05-31T08:35:29.330Z,16.69
2018-05-31T08:36:29.347Z,16.67
2018-05-31T08:37:29.380Z,16.91
2018-05-31T08:38:29.515Z,16.82
2018-05-31T08:39:29.415Z,16.84
2018-05-31T08:40:29.435Z,16.94
2018-05-31T08:41:29.557Z,17.12
2018-05-31T08:42:29.434Z,16.99
2018-05-31T08:43:29.379Z,17.12
2018-05-31T08:44:29.425Z,17.09
2018-05-31T08:45:29.433Z,16.81
2018-05-31T08:46:29.407Z,16.75
2018-05-31T08:47:29.412Z,16.77
2018-05-31T08:48:29.408Z,16.64
2018-05-31T08:49:29.439Z,16.74
2018-05-31T08:50:29.458Z,16.76
2018-05-31T08:51:29.429Z,16.88
2018-05-31T08:52:29.439Z,16.73
2018-05-31T08:53:29.456Z,16.76
2018-05-31T08:54:29.464Z,16.7
2018-05-31T08:55:29.518Z,16.79
2018-05-31T08:56:29.408Z,16.82
2018-05-31T08:57:29.418Z,16.88
2018-05-31T08:58:30.767Z,16.94
2018-05-31T08:59:29.470Z,16.9
2018-05-31T09:00:29.452Z,16.85
2018-05-31T09:01:29.573Z,17
2018-05-31T09:02:29.509Z,17.04
2018-05-31T09:03:29.472Z,16.89
2018-05-31T09:04:29.478Z,16.77
2018-05-31T09:05:29.423Z,16.99
2018-05-31T09:06:29.550Z,16.83
2018-05-31T09:07:29.433Z,16.92
2018-05-31T09:08:29.474Z,16.91
2018-05-31T09:09:29.883Z,16.97
2018-05-31T09:10:29.442Z,17.18
2018-05-31T09:11:29.561Z,17.24
2018-05-31T09:12:29.552Z,17.24
2018-05-31T09:13:29.460Z,17.01
2018-05-31T09:14:29.551Z,16.98
2018-05-31T09:15:29.544Z,16.92
2018-05-31T09:16:30.768Z,16.85
2018-05-31T09:17:29.531Z,16.98
2018-05-31T09:18:29.577Z,17.01
2018-05-31T09:19:29.447Z,16.99
2018-05-31T09:20:29.518Z,17.05
2018-05-31T09:21:29.514Z,17
2018-05-31T09:22:29.461Z,17.08
2018-05-31T09:23:29.553Z,17.17
2018-05-31T09:24:29.643Z,17.18
2018-05-31T09:25:30.035Z,17.16
2018-05-31T09:26:29.470Z,17.22
2018-05-31T09:27:29.527Z,17.45
2018-05-31T09:28:29.976Z,17.14
2018-05-31T09:29:29.574Z,17.15
2018-05-31T09:30:29.589Z,17.14
2018-05-31T09:31:29.438Z,17.24
2018-05-31T09:32:29.436Z,17.01
2018-05-31T09:33:29.443Z,17.03
2018-05-31T09:34:29.497Z,17.1
2018-05-31T09:35:29.444Z,17.39
2018-05-31T09:36:29.461Z,17.33
2018-05-31T09:37:29.781Z,17.36
2018-05-31T09:38:29.743Z,17.48
2018-05-31T09:39:29.751Z,17.49
2018-05-31T09:40:29.466Z,17.48
2018-05-31T09:41:29.491Z,17.47
2018-05-31T09:42:29.467Z,17.54
2018-05-31T09:43:29.613Z,17.41
2018-05-31T09:44:29.513Z,17.74
2018-05-31T09:45:29.561Z,17.32
2018-05-31T09:46:31.039Z,17.32
2018-05-31T09:47:29.353Z,17.52
2018-05-31T09:48:29.337Z,17.26
2018-05-31T09:49:29.350Z,17.37
2018-05-31T09:50:30.203Z,17.36
2018-05-31T09:51:29.661Z,17.4
2018-05-31T09:52:29.337Z,17.65
2018-05-31T09:53:29.365Z,17.55
2018-05-31T09:54:29.380Z,17.25
2018-05-31T09:55:29.385Z,17.19
2018-05-31T09:56:29.760Z,16.99
2018-05-31T09:57:29.393Z,17
2018-05-31T09:58:29.622Z,17.4
2018-05-31T09:59:29.582Z,17.52
2018-05-31T10:00:29.370Z,17.46
2018-05-31T10:01:29.398Z,17.53
2018-05-31T10:02:29.394Z,17.89
2018-05-31T10:03:29.366Z,17.81
2018-05-31T10:04:29.368Z,17.79
2018-05-31T10:05:29.385Z,17.7
2018-05-31T10:06:29.352Z,17.82
2018-05-31T10:07:29.345Z,17.87
2018-05-31T10:08:29.686Z,17.69
2018-05-31T10:09:29.386Z,17.69
2018-05-31T10:10:29.401Z,17.88
2018-05-31T10:11:29.387Z,18.04
2018-05-31T10:12:29.395Z,17.9
2018-05-31T10:13:29.410Z,17.95
2018-05-31T10:14:29.363Z,18.04
2018-05-31T10:15:29.401Z,17.89
2018-05-31T10:16:29.390Z,17.93
2018-05-31T10:17:29.339Z,17.88
2018-05-31T10:18:29.331Z,18.03
2018-05-31T10:19:29.490Z,18.06
2018-05-31T10:20:29.400Z,18.07
2018-05-31T10:21:29.493Z,18.01
2018-05-31T10:22:30.015Z,18.1
2018-05-31T10:23:29.753Z,18.09
2018-05-31T10:24:30.234Z,18.2
2018-05-31T10:25:29.356Z,18.06
2018-05-31T10:26:29.401Z,17.95
2018-05-31T10:27:29.396Z,18.1
2018-05-31T10:28:29.875Z,18
2018-05-31T10:29:29.530Z,17.93
2018-05-31T10:30:29.506Z,18
2018-05-31T10:31:29.501Z,17.98
2018-05-31T10:32:29.851Z,18.08
2018-05-31T10:33:29.527Z,18.02
2018-05-31T10:34:29.592Z,18.14
2018-05-31T10:35:29.538Z,18.28
2018-05-31T10:36:29.575Z,17.83
2018-05-31T10:37:29.583Z,17.64
2018-05-31T10:38:29.846Z,17.81
2018-05-31T10:39:30.360Z,17.93
2018-05-31T10:40:29.547Z,18.06
2018-05-31T10:41:29.481Z,18.02
2018-05-31T10:42:29.649Z,17.86
2018-05-31T10:43:29.579Z,17.93
2018-05-31T10:44:29.625Z,17.91
2018-05-31T10:45:29.492Z,18.02
2018-05-31T10:46:30.004Z,18.03
2018-05-31T10:47:30.174Z,17.97
2018-05-31T10:48:29.619Z,17.93
2018-05-31T10:49:29.613Z,18.08
2018-05-31T10:50:29.642Z,17.75
2018-05-31T10:51:29.575Z,17.82
2018-05-31T10:52:29.670Z,17.92
2018-05-31T10:53:29.638Z,17.9
2018-05-31T10:54:29.636Z,18.09
2018-05-31T10:55:29.644Z,17.94
2018-05-31T10:56:29.503Z,18.03
2018-05-31T10:57:29.587Z,18.19
2018-05-31T10:58:29.512Z,18.29
2018-05-31T10:59:29.504Z,18.08
2018-05-31T11:00:29.532Z,17.91
2018-05-31T11:01:29.491Z,18.1
2018-05-31T11:02:29.686Z,18.09
2018-05-31T11:03:29.367Z,18
2018-05-31T11:04:29.504Z,18.25
2018-05-31T11:05:29.562Z,18.25
2018-05-31T11:06:29.448Z,18.3
2018-05-31T11:07:29.648Z,18.27
2018-05-31T11:08:29.436Z,17.92
2018-05-31T11:09:29.419Z,17.85
2018-05-31T11:10:29.655Z,18.03
2018-05-31T11:11:29.438Z,18.22
2018-05-31T11:12:29.414Z,18.34
2018-05-31T11:13:30.301Z,18.12
2018-05-31T11:14:29.415Z,18.13
2018-05-31T11:15:29.434Z,18.08
2018-05-31T11:16:29.438Z,17.85
2018-05-31T11:17:29.402Z,18.01
2018-05-31T11:18:29.472Z,17.94
2018-05-31T11:19:29.648Z,17.85
2018-05-31T11:20:29.381Z,17.56
2018-05-31T11:21:29.405Z,17.65
2018-05-31T11:22:29.478Z,17.77
2018-05-31T11:23:29.415Z,17.77
2018-05-31T11:24:29.408Z,17.58
2018-05-31T11:25:29.457Z,17.49
2018-05-31T11:26:29.929Z,17.48
2018-05-31T11:27:29.456Z,17.09
2018-05-31T11:28:30.210Z,17.38
2018-05-31T11:29:29.435Z,16.97
2018-05-31T11:30:29.405Z,16.94
2018-05-31T11:31:29.485Z,16.85
2018-05-31T11:32:29.399Z,16.81
2018-05-31T11:33:29.468Z,17.19
2018-05-31T11:34:29.595Z,16.75
2018-05-31T11:35:29.471Z,16.75
2018-05-31T11:36:31.184Z,16.97
2018-05-31T11:37:29.466Z,16.72
2018-05-31T11:38:29.549Z,16.39
2018-05-31T11:39:29.419Z,16.2
2018-05-31T11:40:29.433Z,16.28
2018-05-31T11:41:29.627Z,16.26
2018-05-31T11:42:29.592Z,16.23
2018-05-31T11:43:29.468Z,16.33
2018-05-31T11:44:29.467Z,16.62
2018-05-31T11:45:29.475Z,16.69
2018-05-31T11:46:29.571Z,16.53
2018-05-31T11:47:29.522Z,16.2
2018-05-31T11:48:29.504Z,16.39
2018-05-31T11:49:29.512Z,15.97
2018-05-31T11:50:29.513Z,16.14
2018-05-31T11:51:29.519Z,16.32
2018-05-31T11:52:29.505Z,16.36
2018-05-31T11:53:29.693Z,16.01
2018-05-31T11:54:29.530Z,16.25
2018-05-31T11:55:29.628Z,16.13
2018-05-31T11:56:29.898Z,16.61
2018-05-31T11:57:29.561Z,16.48
2018-05-31T11:58:29.611Z,16.46
2018-05-31T11:59:29.560Z,16.35
2018-05-31T12:00:29.722Z,16.28
2018-05-31T12:01:29.664Z,16.21
2018-05-31T12:02:29.571Z,16.35
2018-05-31T12:03:29.602Z,16.62
2018-05-31T12:04:29.599Z,16.8
2018-05-31T12:05:29.573Z,16.83
2018-05-31T12:06:29.749Z,16.67
2018-05-31T12:07:29.629Z,16.49
2018-05-31T12:08:29.653Z,16.52
2018-05-31T12:09:29.595Z,16.36
2018-05-31T12:10:29.709Z,16.6
2018-05-31T12:11:29.750Z,16.89
2018-05-31T12:12:29.578Z,16.57
2018-05-31T12:13:29.657Z,16.73
2018-05-31T12:14:29.670Z,16.75
2018-05-31T12:15:29.635Z,16.66
2018-05-31T12:16:29.594Z,16.52
2018-05-31T12:17:29.647Z,15.88
2018-05-31T12:18:29.636Z,15.97
2018-05-31T12:19:29.598Z,15.74
2018-05-31T12:20:29.591Z,15.52
2018-05-31T12:21:29.590Z,15.56
2018-05-31T12:22:29.608Z,15.98
2018-05-31T12:23:29.568Z,16.04
2018-05-31T12:24:29.645Z,15.95
2018-05-31T12:25:29.789Z,16.28
2018-05-31T12:26:29.605Z,16.22
2018-05-31T12:27:29.591Z,16.25
2018-05-31T12:28:29.844Z,16.27
2018-05-31T12:29:29.610Z,16.06
2018-05-31T12:30:29.648Z,16.01
2018-05-31T12:31:29.597Z,16.13
2018-05-31T12:32:29.615Z,16.23
2018-05-31T12:33:29.793Z,16.39
2018-05-31T12:34:29.601Z,16.01
2018-05-31T12:35:29.643Z,16.37
2018-05-31T12:36:30.320Z,16.49
2018-05-31T12:37:29.640Z,16.4
2018-05-31T12:38:29.881Z,16.25
2018-05-31T12:39:29.592Z,15.96
2018-05-31T12:40:29.632Z,15.9
2018-05-31T12:41:29.615Z,15.81
2018-05-31T12:42:29.587Z,15.72
2018-05-31T12:43:29.608Z,15.73
2018-05-31T12:44:29.836Z,15.89
2018-05-31T12:45:29.715Z,16.24
2018-05-31T12:46:29.598Z,16.24
2018-05-31T12:47:29.818Z,16.17
2018-05-31T12:48:29.675Z,15.93
2018-05-31T12:49:29.801Z,15.72
2018-05-31T12:50:29.659Z,15.57
2018-05-31T12:51:29.794Z,15.6
2018-05-31T12:52:29.688Z,15.7
2018-05-31T12:53:29.694Z,15.68
2018-05-31T12:54:29.742Z,15.65
2018-05-31T12:55:29.666Z,15.71